Delray Beach, FL

3:23 PM EDT on August 04, 2015 (GMT -0400)
Delray Beach | | Change Station
CLOSE
Current Station
Personal Weather Station
Location: Delray Beach, FL
Elevation: 30 ft
Nearby Weather Stations

Elev 30 ft 26.47 °N, 80.09 °W | Updated 14 seconds ago

Mostly Cloudy
Mostly Cloudy
92.7 °F
Feels Like 128 °F
N
3.7
Wind Variable Wind from SSE
Gusts 4.2 mph

Today
High -- | Low -- °F
--% Chance of Precip.
Yesterday
High -- | Low -- °F
Precip. -- in
6:46 AM 8:05 PM
Waning Gibbous, 75% visible
Pressure 30.06 in
Visibility 10.0 miles
Clouds Clear
Heat Index 128 °F
Dew Point 87 °F
Humidity 84%
Rainfall 0.00 in
Snow Depth Not available.
UV 14 out of 12
Pollen 3.40 out of 12
Air Quality Not available.
Flu Activity Not available.
METAR KPMP 041853Z 11008KT 10SM CLR 32/24 A3005 RMK AO2 SLP177 T03170239

More Conditions Fewer Conditions

Pressure 30.06 in
Visibility 10.0 miles
Clouds Clear
Heat Index 128 °F
Dew Point 87 °F
Humidity 84%
Rainfall 0.00 in
Snow Depth Not available.
UV 14 out of 12
Pollen 3.40 out of 12
Air Quality Not available.
Flu Activity Not available.
METAR KPMP 041853Z 11008KT 10SM CLR 32/24 A3005 RMK AO2 SLP177 T03170239

More Conditions Fewer Conditions

10-Day Weather Forecast

×

Almanac

Astronomy

Aug. 04, 2015 Rise Set
Actual Time
Civil Twilight
Nautical Twilight
Astronomical Twilight
Moon
Length of Visible Light
Length of Day
Tomorrow will be .
, % of the Moon is Illuminated

Today's Extremes

State Highs State Lows

Community

WunderPhotos

Upload Photos

1,843,954 photos uploaded!

WunderBlogs® & News

Nearby

Air Quality

  Air Quality AQ Index Pollutant
Not available.

Snow Depth

Station Depth Elevation

Earthquake Activity

City Distance Mag. Time & Date
Minimum magnitude displayed is 2.5.

Coastal Water Temperatures

Place Temperature

Stations

Nearby Weather Stations

Station Location Temp. Windchill Dew Point Humidity Wind Precip. Elev Updated Type